Walker Valley, New York
Current Conditions -  °F | °C
As of 7:54 AM on Friday 28 Nov 2014 (Local Time) from KMGJ Reporting Station
Clear Clear  
Wind Chill: 16°   Ceiling: Unl
Heat Index: 26°   Visibility: 10mi
Dew Point: 19°   Wind: 10mph
Humidity: 75%   Direction: 310°NW
Pressure: 30.13"   Gusts: NA
Location:  41.63°N, 74.38°W
Report Text: KMGJ 281254Z AUTO 31009KT 10SM CLR M03/M07 A3013 RMK AO2 SLP207 T10331072 TSNO $
Loading
Personal Weather Stations






























Interactive Weather Map New forecast layout! Learn more

10-Day Weather Forecast

Advertisements
Track Severe Weather on mobile